Terminal Aerodrome Forecast
Issued by NWS

Home | Current Version | Previous Version | Text Only | Print | Product List | Glossary On
Versions: 1 2 3 4 5 6 7 8 9 10 11 12 13 14 15
484
FTUS46 KSEW 301120
TAFCLM
TAF
KCLM 301120Z 3012/3112 26003KT P6SM SKC
     FM301800 33012KT P6SM FEW060
     FM310300 29010KT P6SM FEW060
     FM310800 27010KT P6SM OVC015=

USA.gov is the U.S. government's official web portal to all federal, state and local government web resources and services.